Tabellarische Übersicht vom Sonntag, den 09.08.2020

Oder anderes Datum wählen:






max 23,5°C 84,0% 18,0°C 1017,8hPa 23,0°C 0,0km/h (0Bft) 0,0km/h 0° (N) ∑0,0l/m² 10,000klx ∑0,0min
min 20,1°C 62,0% 15,4°C 1016,9hPa 20,0°C 0,0km/h (0Bft) 0,0km/h 0° (N) ∑0,0l/m² 0,000klx ∑0,0min
Ø 21,1°C 75,0% 16,5°C 1017,3hPa 21,0°C 0,0km/h (0Bft) 0,0km/h 0° (N) ∑0,0l/m² 3,000klx ∑0,0min
Zeit Temperatur Luftfeuchte Taupunkt Luftdruck Windchill Windböen Windgeschwindigkeit Windrichtung Regen Helligkeit Regenzeit
07:35 21,7°C 79,5% 18,0°C 1017,3hPa 21,7°C 0,0km/h (0Bft) 0,0km/h 0,0l/m² 8,237klx 0,0min
07:30 21,6°C 80,0% 18,0°C 1017,3hPa 21,6°C 0,0km/h (0Bft) 0,0km/h 0,0l/m² 8,836klx 0,0min
07:25 21,4°C 79,6% 17,7°C 1017,3hPa 21,4°C 0,0km/h (0Bft) 0,0km/h 0,0l/m² 9,985klx 0,0min
07:20 21,2°C 80,4% 17,7°C 1017,3hPa 21,2°C 0,0km/h (0Bft) 0,0km/h 0,0l/m² 10,138klx 0,0min
07:15 20,9°C 80,8% 17,5°C 1017,3hPa 20,9°C 0,0km/h (0Bft) 0,0km/h 0,0l/m² 8,891klx 0,0min
07:10 20,7°C 81,4% 17,4°C 1017,2hPa 20,7°C 0,0km/h (0Bft) 0,0km/h 0,0l/m² 7,251klx 0,0min
07:05 20,6°C 81,4% 17,3°C 1017,2hPa 20,6°C 0,0km/h (0Bft) 0,0km/h 0,0l/m² 5,907klx 0,0min
07:00 20,4°C 82,7% 17,3°C 1017,2hPa 20,4°C 0,0km/h (0Bft) 0,0km/h 0,0l/m² 4,775klx 0,0min
06:55 20,3°C 83,3% 17,4°C 1017,2hPa 20,3°C 0,0km/h (0Bft) 0,0km/h 0,0l/m² 3,809klx 0,0min
06:50 20,2°C 83,8% 17,3°C 1017,1hPa 20,2°C 0,0km/h (0Bft) 0,0km/h 0,0l/m² 2,971klx 0,0min
06:45 20,2°C 83,1% 17,2°C 1017,0hPa 20,2°C 0,0km/h (0Bft) 0,0km/h 0,0l/m² 2,227klx 0,0min
06:40 20,1°C 82,0% 17,0°C 1017,0hPa 20,1°C 0,0km/h (0Bft) 0,0km/h 0,0l/m² 1,597klx 0,0min
06:35 20,2°C 81,2% 16,8°C 1017,0hPa 20,2°C 0,0km/h (0Bft) 0,0km/h 0,0l/m² 1,193klx 0,0min
06:30 20,2°C 80,3% 16,7°C 1017,0hPa 20,2°C 0,0km/h (0Bft) 0,0km/h 0,0l/m² 0,940klx 0,0min
06:25 20,2°C 79,1% 16,5°C 1017,0hPa 20,2°C 0,0km/h (0Bft) 0,0km/h 0,0l/m² 0,794klx 0,0min
06:20 20,2°C 79,3% 16,5°C 1017,0hPa 20,2°C 0,0km/h (0Bft) 0,0km/h 0,0l/m² 0,574klx 0,0min
06:15 20,1°C 79,2% 16,4°C 1017,0hPa 20,1°C 0,0km/h (0Bft) 0,0km/h 0,0l/m² 0,404klx 0,0min
06:10 20,2°C 79,4% 16,5°C 1017,0hPa 20,2°C 0,0km/h (0Bft) 0,0km/h 0,0l/m² 0,276klx 0,0min
06:05 20,2°C 79,1% 16,5°C 1017,0hPa 20,2°C 0,0km/h (0Bft) 0,0km/h 0,0l/m² 0,178klx 0,0min
06:00 20,3°C 78,9% 16,5°C 1017,1hPa 20,3°C 0,0km/h (0Bft) 0,0km/h 0,0l/m² 0,105klx 0,0min
05:55 20,3°C 79,6% 16,6°C 1017,1hPa 20,3°C 0,0km/h (0Bft) 0,0km/h 0,0l/m² 0,055klx 0,0min
05:50 20,1°C 81,0% 16,8°C 1017,1hPa 20,1°C 0,0km/h (0Bft) 0,0km/h 0,0l/m² 0,027klx 0,0min
05:45 20,2°C 80,4% 16,7°C 1017,0hPa 20,2°C 0,0km/h (0Bft) 0,0km/h 0,0l/m² 0,014klx 0,0min
05:40 20,3°C 80,6% 16,8°C 1017,1hPa 20,3°C 0,0km/h (0Bft) 0,0km/h 0,0l/m² 0,007klx 0,0min
05:35 20,3°C 80,3% 16,7°C 1017,0hPa 20,3°C 0,0km/h (0Bft) 0,0km/h 0,0l/m² 0,003klx 0,0min
05:30 20,2°C 80,2% 16,7°C 1017,0hPa 20,2°C 0,0km/h (0Bft) 0,0km/h 0,0l/m² 0,002klx 0,0min
05:25 20,2°C 80,1% 16,7°C 1017,0hPa 20,2°C 0,0km/h (0Bft) 0,0km/h 0,0l/m² 0,001klx 0,0min
05:20 20,2°C 80,3% 16,7°C 1017,0hPa 20,2°C 0,0km/h (0Bft) 0,0km/h 0,0l/m² 0,001klx 0,0min
05:15 20,2°C 80,4% 16,7°C 1017,0hPa 20,2°C 0,0km/h (0Bft) 0,0km/h 0,0l/m² 0,001klx 0,0min
05:10 20,2°C 80,9% 16,8°C 1017,0hPa 20,2°C 0,0km/h (0Bft) 0,0km/h 0,0l/m² 0,001klx 0,0min
05:05 20,3°C 80,2% 16,7°C 1016,9hPa 20,3°C 0,0km/h (0Bft) 0,0km/h 0,0l/m² 0,000klx 0,0min
05:00 20,2°C 81,0% 16,8°C 1017,0hPa 20,2°C 0,0km/h (0Bft) 0,0km/h 0,0l/m² 0,000klx 0,0min
04:55 20,1°C 81,1% 16,8°C 1017,0hPa 20,1°C 0,0km/h (0Bft) 0,0km/h 0,0l/m² 0,000klx 0,0min
04:50 20,2°C 80,7% 16,7°C 1017,0hPa 20,2°C 0,0km/h (0Bft) 0,0km/h 0,0l/m² 0,000klx 0,0min
04:45 20,2°C 81,7% 17,0°C 1017,1hPa 20,2°C 0,0km/h (0Bft) 0,0km/h 0,0l/m² 0,000klx 0,0min
04:40 20,2°C 81,5% 16,9°C 1017,1hPa 20,2°C 0,0km/h (0Bft) 0,0km/h 0,0l/m² 0,000klx 0,0min
04:35 20,4°C 81,8% 17,2°C 1017,1hPa 20,4°C 0,0km/h (0Bft) 0,0km/h 0,0l/m² 0,000klx 0,0min
04:30 20,4°C 82,0% 17,2°C 1017,1hPa 20,4°C 0,0km/h (0Bft) 0,0km/h 0,0l/m² 0,000klx 0,0min
04:25 20,4°C 82,2% 17,3°C 1017,1hPa 20,4°C 0,0km/h (0Bft) 0,0km/h 0,0l/m² 0,000klx 0,0min
04:20 20,3°C 83,5% 17,4°C 1017,1hPa 20,3°C 0,0km/h (0Bft) 0,0km/h 0,0l/m² 0,000klx 0,0min
04:15 20,3°C 83,0% 17,3°C 1017,1hPa 20,3°C 0,0km/h (0Bft) 0,0km/h 0,0l/m² 0,001klx 0,0min
04:10 20,4°C 81,8% 17,2°C 1017,1hPa 20,4°C 0,0km/h (0Bft) 0,0km/h 0,0l/m² 0,000klx 0,0min
04:05 20,5°C 81,1% 17,1°C 1017,1hPa 20,5°C 0,0km/h (0Bft) 0,0km/h 0,0l/m² 0,001klx 0,0min
04:00 20,4°C 81,6% 17,2°C 1017,1hPa 20,4°C 0,0km/h (0Bft) 0,0km/h 0,0l/m² 0,000klx 0,0min
03:55 20,5°C 81,0% 17,1°C 1017,0hPa 20,5°C 0,0km/h (0Bft) 0,0km/h 0,0l/m² 0,000klx 0,0min
03:50 20,7°C 78,8% 16,8°C 1017,0hPa 20,7°C 0,0km/h (0Bft) 0,0km/h 0,0l/m² 0,000klx 0,0min
03:45 20,7°C 78,3% 16,8°C 1017,0hPa 20,7°C 0,0km/h (0Bft) 0,0km/h 0,0l/m² 0,000klx 0,0min
03:40 20,7°C 76,4% 16,4°C 1017,1hPa 20,7°C 0,0km/h (0Bft) 0,0km/h 0,0l/m² 0,000klx 0,0min
03:35 20,8°C 75,8% 16,3°C 1017,1hPa 20,8°C 0,0km/h (0Bft) 0,0km/h 0,0l/m² 0,000klx 0,0min
03:30 20,9°C 75,4% 16,3°C 1017,1hPa 20,9°C 0,0km/h (0Bft) 0,0km/h 0,0l/m² 0,000klx 0,0min
03:25 20,9°C 74,7% 16,2°C 1017,1hPa 20,9°C 0,0km/h (0Bft) 0,0km/h 0,0l/m² 0,000klx 0,0min
03:20 20,7°C 74,5% 16,0°C 1017,0hPa 20,7°C 0,0km/h (0Bft) 0,0km/h 0,0l/m² 0,000klx 0,0min
03:15 20,8°C 73,8% 15,9°C 1017,0hPa 20,8°C 0,0km/h (0Bft) 0,0km/h 0,0l/m² 0,000klx 0,0min
03:10 21,0°C 72,7% 15,9°C 1017,1hPa 21,0°C 0,0km/h (0Bft) 0,0km/h 0,0l/m² 0,000klx 0,0min
03:05 20,9°C 72,1% 15,7°C 1017,1hPa 20,9°C 0,0km/h (0Bft) 0,0km/h 0,0l/m² 0,000klx 0,0min
03:00 20,9°C 72,9% 15,8°C 1017,1hPa 20,9°C 0,0km/h (0Bft) 0,0km/h 0,0l/m² 0,000klx 0,0min
02:55 20,9°C 72,4% 15,8°C 1017,2hPa 20,9°C 0,0km/h (0Bft) 0,0km/h 0,0l/m² 0,000klx 0,0min
02:50 21,0°C 71,8% 15,7°C 1017,2hPa 21,0°C 0,0km/h (0Bft) 0,0km/h 0,0l/m² 0,001klx 0,0min
02:45 21,0°C 72,2% 15,8°C 1017,2hPa 21,0°C 0,0km/h (0Bft) 0,0km/h 0,0l/m² 0,000klx 0,0min
02:40 21,0°C 72,3% 15,8°C 1017,2hPa 21,0°C 0,0km/h (0Bft) 0,0km/h 0,0l/m² 0,001klx 0,0min
02:35 21,1°C 72,3% 15,9°C 1017,2hPa 21,1°C 0,0km/h (0Bft) 0,0km/h 0,0l/m² 0,000klx 0,0min
02:30 21,1°C 72,0% 15,9°C 1017,3hPa 21,1°C 0,0km/h (0Bft) 0,0km/h 0,0l/m² 0,000klx 0,0min
02:25 21,2°C 72,3% 16,0°C 1017,3hPa 21,2°C 0,0km/h (0Bft) 0,0km/h 0,0l/m² 0,000klx 0,0min
02:20 21,3°C 71,4% 15,9°C 1017,3hPa 21,3°C 0,0km/h (0Bft) 0,0km/h 0,0l/m² 0,000klx 0,0min
02:15 21,3°C 71,7% 16,0°C 1017,4hPa 21,3°C 0,0km/h (0Bft) 0,0km/h 0,0l/m² 0,000klx 0,0min
02:10 21,4°C 71,5% 16,0°C 1017,4hPa 21,4°C 0,0km/h (0Bft) 0,0km/h 0,0l/m² 0,000klx 0,0min
02:05 21,4°C 71,8% 16,1°C 1017,4hPa 21,4°C 0,0km/h (0Bft) 0,0km/h 0,0l/m² 0,000klx 0,0min
02:00 21,4°C 71,2% 16,0°C 1017,4hPa 21,4°C 0,0km/h (0Bft) 0,0km/h 0,0l/m² 0,000klx 0,0min
01:55 21,5°C 71,0% 16,0°C 1017,5hPa 21,5°C 0,0km/h (0Bft) 0,0km/h 0,0l/m² 0,001klx 0,0min
01:50 21,7°C 69,3% 15,8°C 1017,5hPa 21,7°C 0,0km/h (0Bft) 0,0km/h 0,0l/m² 0,000klx 0,0min
01:45 22,0°C 67,4% 15,7°C 1017,6hPa 22,0°C 0,0km/h (0Bft) 0,0km/h 0,0l/m² 0,000klx 0,0min
01:40 22,0°C 67,8% 15,8°C 1017,5hPa 22,0°C 0,0km/h (0Bft) 0,0km/h 0,0l/m² 0,000klx 0,0min
01:35 22,1°C 67,0% 15,7°C 1017,6hPa 22,1°C 0,0km/h (0Bft) 0,0km/h 0,0l/m² 0,000klx 0,0min
01:30 22,2°C 66,3% 15,6°C 1017,7hPa 22,2°C 0,0km/h (0Bft) 0,0km/h 0,0l/m² 0,000klx 0,0min
01:25 22,2°C 65,5% 15,4°C 1017,7hPa 22,2°C 0,0km/h (0Bft) 0,0km/h 0,0l/m² 0,000klx 0,0min
01:20 22,3°C 65,1% 15,5°C 1017,7hPa 22,3°C 0,0km/h (0Bft) 0,0km/h 0,0l/m² 0,000klx 0,0min
01:15 22,3°C 65,7% 15,5°C 1017,7hPa 22,3°C 0,0km/h (0Bft) 0,0km/h 0,0l/m² 0,000klx 0,0min
01:10 22,2°C 65,6% 15,5°C 1017,7hPa 22,2°C 0,0km/h (0Bft) 0,0km/h 0,0l/m² 0,000klx 0,0min
01:05 22,2°C 65,3% 15,4°C 1017,7hPa 22,2°C 0,0km/h (0Bft) 0,0km/h 0,0l/m² 0,000klx 0,0min
01:00 22,3°C 67,5% 15,9°C 1017,7hPa 22,3°C 0,0km/h (0Bft) 0,0km/h 0,0l/m² 0,000klx 0,0min
00:55 22,4°C 67,5% 16,0°C 1017,7hPa 22,4°C 0,0km/h (0Bft) 0,0km/h 0,0l/m² 0,000klx 0,0min
00:50 22,4°C 68,7% 16,4°C 1017,7hPa 22,4°C 0,0km/h (0Bft) 0,0km/h 0,0l/m² 0,000klx 0,0min
00:45 22,5°C 70,3% 16,8°C 1017,7hPa 22,5°C 0,0km/h (0Bft) 0,0km/h 0,0l/m² 0,000klx 0,0min
00:40 22,5°C 69,5% 16,7°C 1017,7hPa 22,5°C 0,0km/h (0Bft) 0,0km/h 0,0l/m² 0,000klx 0,0min
00:35 22,5°C 68,9% 16,5°C 1017,7hPa 22,5°C 0,0km/h (0Bft) 0,0km/h 0,0l/m² 0,001klx 0,0min
00:30 22,6°C 68,5% 16,5°C 1017,7hPa 22,6°C 0,0km/h (0Bft) 0,0km/h 0,0l/m² 0,000klx 0,0min
00:25 22,7°C 68,2% 16,5°C 1017,7hPa 22,7°C 0,0km/h (0Bft) 0,0km/h 0,0l/m² 0,000klx 0,0min
00:20 22,7°C 67,3% 16,4°C 1017,7hPa 22,7°C 0,0km/h (0Bft) 0,0km/h 0,0l/m² 0,000klx 0,0min
00:15 23,0°C 65,2% 16,1°C 1017,7hPa 23,0°C 0,0km/h (0Bft) 0,0km/h 0,0l/m² 0,000klx 0,0min
00:10 23,3°C 63,4% 16,0°C 1017,7hPa 23,3°C 0,0km/h (0Bft) 0,0km/h 0,0l/m² 0,000klx 0,0min
00:05 23,5°C 62,3% 15,8°C 1017,8hPa 23,5°C 0,0km/h (0Bft) 0,0km/h 0,0l/m² 0,000klx 0,0min
00:00 23,2°C 64,2% 16,0°C 1017,8hPa 23,2°C 0,0km/h (0Bft) 0,0km/h 0,0l/m² 0,000klx 0,0min

Aktuelle Wetterdaten

09.08.2020 07:35 Uhr